sensor_id;sensor_type;location;lat;lon;timestamp;P1;durP1;ratioP1;P2;durP2;ratioP2
30301;SDS011;17111;52.130;5.028;2023-07-08T00:00:26;6.60;;;3.33;;
30301;SDS011;17111;52.130;5.028;2023-07-08T00:02:53;5.80;;;3.17;;
30301;SDS011;17111;52.130;5.028;2023-07-08T00:05:20;4.22;;;2.92;;
30301;SDS011;17111;52.130;5.028;2023-07-08T00:07:50;5.32;;;3.10;;
30301;SDS011;17111;52.130;5.028;2023-07-08T00:10:18;5.68;;;2.97;;
30301;SDS011;17111;52.130;5.028;2023-07-08T00:12:50;4.85;;;2.88;;
30301;SDS011;17111;52.130;5.028;2023-07-08T00:15:20;4.25;;;2.58;;
30301;SDS011;17111;52.130;5.028;2023-07-08T00:17:51;4.75;;;2.90;;
30301;SDS011;17111;52.130;5.028;2023-07-08T00:20:27;4.97;;;3.05;;
30301;SDS011;17111;52.130;5.028;2023-07-08T00:22:56;4.22;;;2.70;;
30301;SDS011;17111;52.130;5.028;2023-07-08T00:25:23;3.65;;;2.58;;
30301;SDS011;17111;52.130;5.028;2023-07-08T00:27:50;3.90;;;3.03;;
30301;SDS011;17111;52.130;5.028;2023-07-08T00:30:24;4.13;;;2.65;;
30301;SDS011;17111;52.130;5.028;2023-07-08T00:32:52;4.57;;;3.33;;
30301;SDS011;17111;52.130;5.028;2023-07-08T00:35:28;5.05;;;2.90;;
30301;SDS011;17111;52.130;5.028;2023-07-08T00:37:58;3.95;;;2.88;;
30301;SDS011;17111;52.130;5.028;2023-07-08T00:40:29;4.53;;;2.83;;
30301;SDS011;17111;52.130;5.028;2023-07-08T00:42:57;4.38;;;2.90;;
30301;SDS011;17111;52.130;5.028;2023-07-08T00:47:53;3.33;;;2.80;;
30301;SDS011;17111;52.130;5.028;2023-07-08T00:50:22;3.92;;;2.65;;
30301;SDS011;17111;52.130;5.028;2023-07-08T00:52:49;5.97;;;2.60;;
30301;SDS011;17111;52.130;5.028;2023-07-08T00:55:15;4.43;;;2.58;;
30301;SDS011;17111;52.130;5.028;2023-07-08T00:57:43;5.03;;;2.67;;
30301;SDS011;17111;52.130;5.028;2023-07-08T01:00:12;4.03;;;2.83;;
30301;SDS011;17111;52.130;5.028;2023-07-08T01:02:45;3.72;;;2.42;;
30301;SDS011;17111;52.130;5.028;2023-07-08T01:05:19;4.07;;;2.70;;
30301;SDS011;17111;52.130;5.028;2023-07-08T01:07:52;5.82;;;2.92;;
30301;SDS011;17111;52.130;5.028;2023-07-08T01:10:28;5.15;;;2.92;;
30301;SDS011;17111;52.130;5.028;2023-07-08T01:13:00;4.82;;;2.92;;
30301;SDS011;17111;52.130;5.028;2023-07-08T01:15:31;4.20;;;2.95;;
30301;SDS011;17111;52.130;5.028;2023-07-08T01:18:08;3.35;;;2.40;;
30301;SDS011;17111;52.130;5.028;2023-07-08T01:20:37;3.88;;;2.53;;
30301;SDS011;17111;52.130;5.028;2023-07-08T01:23:05;3.38;;;2.33;;
30301;SDS011;17111;52.130;5.028;2023-07-08T01:25:31;5.43;;;2.75;;
30301;SDS011;17111;52.130;5.028;2023-07-08T01:27:59;6.25;;;2.90;;
30301;SDS011;17111;52.130;5.028;2023-07-08T01:30:27;6.18;;;3.28;;
30301;SDS011;17111;52.130;5.028;2023-07-08T01:32:57;4.35;;;2.88;;
30301;SDS011;17111;52.130;5.028;2023-07-08T01:35:29;4.03;;;2.28;;
30301;SDS011;17111;52.130;5.028;2023-07-08T01:38:02;5.38;;;2.53;;
30301;SDS011;17111;52.130;5.028;2023-07-08T01:40:32;3.95;;;2.65;;
30301;SDS011;17111;52.130;5.028;2023-07-08T01:43:02;3.38;;;2.60;;
30301;SDS011;17111;52.130;5.028;2023-07-08T01:45:38;3.78;;;2.60;;
30301;SDS011;17111;52.130;5.028;2023-07-08T01:48:08;4.65;;;2.70;;
30301;SDS011;17111;52.130;5.028;2023-07-08T01:50:40;3.15;;;2.17;;
30301;SDS011;17111;52.130;5.028;2023-07-08T01:53:12;6.53;;;3.25;;
30301;SDS011;17111;52.130;5.028;2023-07-08T01:55:41;3.30;;;2.50;;
30301;SDS011;17111;52.130;5.028;2023-07-08T01:58:08;4.07;;;2.70;;
30301;SDS011;17111;52.130;5.028;2023-07-08T02:00:35;3.80;;;2.65;;
30301;SDS011;17111;52.130;5.028;2023-07-08T02:03:01;3.72;;;2.33;;
30301;SDS011;17111;52.130;5.028;2023-07-08T02:05:28;4.20;;;2.70;;
30301;SDS011;17111;52.130;5.028;2023-07-08T02:07:55;4.18;;;3.00;;
30301;SDS011;17111;52.130;5.028;2023-07-08T02:10:22;5.00;;;2.78;;
30301;SDS011;17111;52.130;5.028;2023-07-08T02:12:49;4.95;;;2.78;;
30301;SDS011;17111;52.130;5.028;2023-07-08T02:15:15;3.85;;;2.33;;
30301;SDS011;17111;52.130;5.028;2023-07-08T02:17:42;3.42;;;2.33;;
30301;SDS011;17111;52.130;5.028;2023-07-08T02:20:09;4.10;;;2.30;;
30301;SDS011;17111;52.130;5.028;2023-07-08T02:22:36;3.33;;;2.42;;
30301;SDS011;17111;52.130;5.028;2023-07-08T02:25:03;4.47;;;2.55;;
30301;SDS011;17111;52.130;5.028;2023-07-08T02:27:29;4.00;;;2.70;;
30301;SDS011;17111;52.130;5.028;2023-07-08T02:29:56;5.35;;;3.33;;
30301;SDS011;17111;52.130;5.028;2023-07-08T02:32:23;5.45;;;2.72;;
30301;SDS011;17111;52.130;5.028;2023-07-08T02:34:49;4.43;;;2.63;;
30301;SDS011;17111;52.130;5.028;2023-07-08T02:37:18;3.42;;;2.50;;
30301;SDS011;17111;52.130;5.028;2023-07-08T02:39:44;4.15;;;2.65;;
30301;SDS011;17111;52.130;5.028;2023-07-08T02:42:11;4.65;;;3.10;;
30301;SDS011;17111;52.130;5.028;2023-07-08T02:44:38;5.20;;;2.75;;
30301;SDS011;17111;52.130;5.028;2023-07-08T02:47:04;4.65;;;2.92;;
30301;SDS011;17111;52.130;5.028;2023-07-08T02:49:31;3.88;;;2.70;;
30301;SDS011;17111;52.130;5.028;2023-07-08T02:51:57;4.85;;;2.75;;
30301;SDS011;17111;52.130;5.028;2023-07-08T02:54:24;3.42;;;2.20;;
30301;SDS011;17111;52.130;5.028;2023-07-08T02:56:51;4.82;;;2.80;;
30301;SDS011;17111;52.130;5.028;2023-07-08T02:59:17;5.72;;;2.58;;
30301;SDS011;17111;52.130;5.028;2023-07-08T03:01:44;4.90;;;2.90;;
30301;SDS011;17111;52.130;5.028;2023-07-08T03:04:13;2.78;;;2.00;;
30301;SDS011;17111;52.130;5.028;2023-07-08T03:06:40;3.95;;;2.50;;
30301;SDS011;17111;52.130;5.028;2023-07-08T03:09:08;4.05;;;2.60;;
30301;SDS011;17111;52.130;5.028;2023-07-08T03:11:35;5.38;;;2.70;;
30301;SDS011;17111;52.130;5.028;2023-07-08T03:14:02;5.38;;;2.53;;
30301;SDS011;17111;52.130;5.028;2023-07-08T03:16:29;3.67;;;2.50;;
30301;SDS011;17111;52.130;5.028;2023-07-08T03:18:56;3.95;;;2.60;;
30301;SDS011;17111;52.130;5.028;2023-07-08T03:21:22;3.22;;;2.30;;
30301;SDS011;17111;52.130;5.028;2023-07-08T03:23:50;4.70;;;2.55;;
30301;SDS011;17111;52.130;5.028;2023-07-08T03:26:19;3.58;;;2.38;;
30301;SDS011;17111;52.130;5.028;2023-07-08T03:28:47;3.55;;;2.50;;
30301;SDS011;17111;52.130;5.028;2023-07-08T03:31:14;2.58;;;2.13;;
30301;SDS011;17111;52.130;5.028;2023-07-08T03:33:41;3.85;;;2.40;;
30301;SDS011;17111;52.130;5.028;2023-07-08T03:36:12;3.88;;;2.15;;
30301;SDS011;17111;52.130;5.028;2023-07-08T03:38:59;3.67;;;2.22;;
30301;SDS011;17111;52.130;5.028;2023-07-08T03:41:27;3.53;;;2.53;;
30301;SDS011;17111;52.130;5.028;2023-07-08T03:43:54;3.90;;;2.47;;
30301;SDS011;17111;52.130;5.028;2023-07-08T03:46:20;4.07;;;2.60;;
30301;SDS011;17111;52.130;5.028;2023-07-08T03:48:48;3.97;;;2.55;;
30301;SDS011;17111;52.130;5.028;2023-07-08T03:51:21;3.45;;;2.67;;
30301;SDS011;17111;52.130;5.028;2023-07-08T03:53:51;3.72;;;2.45;;
30301;SDS011;17111;52.130;5.028;2023-07-08T03:56:18;3.63;;;2.67;;
30301;SDS011;17111;52.130;5.028;2023-07-08T03:58:45;4.28;;;2.70;;
30301;SDS011;17111;52.130;5.028;2023-07-08T04:01:13;4.38;;;2.70;;
30301;SDS011;17111;52.130;5.028;2023-07-08T04:03:46;3.38;;;2.22;;
30301;SDS011;17111;52.130;5.028;2023-07-08T04:06:13;3.80;;;2.50;;
30301;SDS011;17111;52.130;5.028;2023-07-08T04:08:40;5.32;;;2.50;;
30301;SDS011;17111;52.130;5.028;2023-07-08T04:11:08;4.80;;;2.30;;
30301;SDS011;17111;52.130;5.028;2023-07-08T04:13:37;5.93;;;2.53;;
30301;SDS011;17111;52.130;5.028;2023-07-08T04:16:06;4.60;;;2.22;;
30301;SDS011;17111;52.130;5.028;2023-07-08T04:18:36;2.83;;;1.92;;
30301;SDS011;17111;52.130;5.028;2023-07-08T04:21:02;3.67;;;2.22;;
30301;SDS011;17111;52.130;5.028;2023-07-08T04:23:32;3.50;;;2.35;;
30301;SDS011;17111;52.130;5.028;2023-07-08T04:25:59;3.75;;;2.13;;
30301;SDS011;17111;52.130;5.028;2023-07-08T04:28:26;4.38;;;2.30;;
30301;SDS011;17111;52.130;5.028;2023-07-08T04:30:52;4.25;;;2.33;;
30301;SDS011;17111;52.130;5.028;2023-07-08T04:33:19;4.45;;;2.30;;
30301;SDS011;17111;52.130;5.028;2023-07-08T04:35:46;3.47;;;1.92;;
30301;SDS011;17111;52.130;5.028;2023-07-08T04:38:17;4.20;;;2.42;;
30301;SDS011;17111;52.130;5.028;2023-07-08T04:40:47;3.65;;;2.40;;
30301;SDS011;17111;52.130;5.028;2023-07-08T04:43:15;3.88;;;2.13;;
30301;SDS011;17111;52.130;5.028;2023-07-08T04:45:43;3.33;;;2.30;;
30301;SDS011;17111;52.130;5.028;2023-07-08T04:48:12;3.33;;;2.40;;
30301;SDS011;17111;52.130;5.028;2023-07-08T04:50:44;4.13;;;2.05;;
30301;SDS011;17111;52.130;5.028;2023-07-08T04:53:12;3.30;;;2.22;;
30301;SDS011;17111;52.130;5.028;2023-07-08T04:55:40;3.17;;;2.22;;
30301;SDS011;17111;52.130;5.028;2023-07-08T04:58:19;3.72;;;1.98;;
30301;SDS011;17111;52.130;5.028;2023-07-08T05:00:46;2.85;;;1.75;;
30301;SDS011;17111;52.130;5.028;2023-07-08T05:03:12;2.50;;;2.00;;
30301;SDS011;17111;52.130;5.028;2023-07-08T05:05:39;4.55;;;2.13;;
30301;SDS011;17111;52.130;5.028;2023-07-08T05:08:07;3.60;;;1.90;;
30301;SDS011;17111;52.130;5.028;2023-07-08T05:10:34;3.30;;;2.10;;
30301;SDS011;17111;52.130;5.028;2023-07-08T05:13:01;2.50;;;2.10;;
30301;SDS011;17111;52.130;5.028;2023-07-08T05:15:28;5.32;;;2.40;;
30301;SDS011;17111;52.130;5.028;2023-07-08T05:17:54;4.15;;;2.47;;
30301;SDS011;17111;52.130;5.028;2023-07-08T05:20:21;2.92;;;1.60;;
30301;SDS011;17111;52.130;5.028;2023-07-08T05:22:48;3.35;;;2.20;;
30301;SDS011;17111;52.130;5.028;2023-07-08T05:25:15;2.78;;;1.73;;
30301;SDS011;17111;52.130;5.028;2023-07-08T05:27:42;3.45;;;2.20;;
30301;SDS011;17111;52.130;5.028;2023-07-08T05:30:10;3.78;;;2.10;;
30301;SDS011;17111;52.130;5.028;2023-07-08T05:32:40;4.63;;;2.10;;
30301;SDS011;17111;52.130;5.028;2023-07-08T05:35:07;2.40;;;1.73;;
30301;SDS011;17111;52.130;5.028;2023-07-08T05:37:36;2.33;;;2.08;;
30301;SDS011;17111;52.130;5.028;2023-07-08T05:40:03;2.83;;;2.03;;
30301;SDS011;17111;52.130;5.028;2023-07-08T05:42:31;4.82;;;2.15;;
30301;SDS011;17111;52.130;5.028;2023-07-08T05:44:57;3.42;;;2.00;;
30301;SDS011;17111;52.130;5.028;2023-07-08T05:47:24;3.08;;;2.28;;
30301;SDS011;17111;52.130;5.028;2023-07-08T05:49:51;2.78;;;1.90;;
30301;SDS011;17111;52.130;5.028;2023-07-08T05:52:17;3.60;;;2.00;;
30301;SDS011;17111;52.130;5.028;2023-07-08T05:54:44;5.03;;;2.20;;
30301;SDS011;17111;52.130;5.028;2023-07-08T05:57:10;3.72;;;2.10;;
30301;SDS011;17111;52.130;5.028;2023-07-08T05:59:37;2.40;;;2.08;;
30301;SDS011;17111;52.130;5.028;2023-07-08T06:02:10;4.20;;;2.30;;
30301;SDS011;17111;52.130;5.028;2023-07-08T06:04:38;5.07;;;2.63;;
30301;SDS011;17111;52.130;5.028;2023-07-08T06:07:06;8.88;;;3.10;;
30301;SDS011;17111;52.130;5.028;2023-07-08T06:09:33;14.98;;;3.92;;
30301;SDS011;17111;52.130;5.028;2023-07-08T06:12:00;8.00;;;3.30;;
30301;SDS011;17111;52.130;5.028;2023-07-08T06:14:27;13.77;;;4.20;;
30301;SDS011;17111;52.130;5.028;2023-07-08T06:16:54;9.85;;;3.83;;
30301;SDS011;17111;52.130;5.028;2023-07-08T06:19:21;8.30;;;3.10;;
30301;SDS011;17111;52.130;5.028;2023-07-08T06:21:48;14.05;;;3.28;;
30301;SDS011;17111;52.130;5.028;2023-07-08T06:24:15;8.82;;;3.00;;
30301;SDS011;17111;52.130;5.028;2023-07-08T06:26:41;5.50;;;3.20;;
30301;SDS011;17111;52.130;5.028;2023-07-08T06:29:08;7.22;;;3.33;;
30301;SDS011;17111;52.130;5.028;2023-07-08T06:31:35;9.18;;;2.97;;
30301;SDS011;17111;52.130;5.028;2023-07-08T06:34:01;6.22;;;3.30;;
30301;SDS011;17111;52.130;5.028;2023-07-08T06:36:28;6.43;;;2.70;;
30301;SDS011;17111;52.130;5.028;2023-07-08T06:38:55;17.20;;;10.38;;
30301;SDS011;17111;52.130;5.028;2023-07-08T06:41:21;18.80;;;11.18;;
30301;SDS011;17111;52.130;5.028;2023-07-08T06:43:48;18.48;;;11.60;;
30301;SDS011;17111;52.130;5.028;2023-07-08T06:46:15;18.50;;;12.25;;
30301;SDS011;17111;52.130;5.028;2023-07-08T06:48:42;15.90;;;11.05;;
30301;SDS011;17111;52.130;5.028;2023-07-08T06:51:09;20.83;;;10.82;;
30301;SDS011;17111;52.130;5.028;2023-07-08T06:53:35;15.48;;;10.02;;
30301;SDS011;17111;52.130;5.028;2023-07-08T06:56:02;13.25;;;8.63;;
30301;SDS011;17111;52.130;5.028;2023-07-08T06:58:29;15.25;;;8.63;;
30301;SDS011;17111;52.130;5.028;2023-07-08T07:00:55;13.93;;;8.55;;
30301;SDS011;17111;52.130;5.028;2023-07-08T07:03:24;10.30;;;7.30;;
30301;SDS011;17111;52.130;5.028;2023-07-08T07:05:51;11.57;;;7.35;;
30301;SDS011;17111;52.130;5.028;2023-07-08T07:08:17;10.38;;;7.35;;
30301;SDS011;17111;52.130;5.028;2023-07-08T07:10:44;11.05;;;6.55;;
30301;SDS011;17111;52.130;5.028;2023-07-08T07:13:10;12.10;;;7.05;;
30301;SDS011;17111;52.130;5.028;2023-07-08T07:15:37;9.90;;;6.32;;
30301;SDS011;17111;52.130;5.028;2023-07-08T07:18:04;11.80;;;6.18;;
30301;SDS011;17111;52.130;5.028;2023-07-08T07:20:30;9.55;;;5.30;;
30301;SDS011;17111;52.130;5.028;2023-07-08T07:22:57;9.52;;;5.40;;
30301;SDS011;17111;52.130;5.028;2023-07-08T07:25:24;7.47;;;4.80;;
30301;SDS011;17111;52.130;5.028;2023-07-08T07:27:51;9.20;;;5.00;;
30301;SDS011;17111;52.130;5.028;2023-07-08T07:30:17;7.30;;;4.57;;
30301;SDS011;17111;52.130;5.028;2023-07-08T07:32:44;6.55;;;4.20;;
30301;SDS011;17111;52.130;5.028;2023-07-08T07:35:12;8.82;;;4.30;;
30301;SDS011;17111;52.130;5.028;2023-07-08T07:37:41;6.72;;;4.10;;
30301;SDS011;17111;52.130;5.028;2023-07-08T07:40:12;6.38;;;3.67;;
30301;SDS011;17111;52.130;5.028;2023-07-08T07:42:42;6.28;;;3.72;;
30301;SDS011;17111;52.130;5.028;2023-07-08T07:45:10;6.68;;;3.85;;
30301;SDS011;17111;52.130;5.028;2023-07-08T07:47:37;8.18;;;4.75;;
30301;SDS011;17111;52.130;5.028;2023-07-08T07:50:05;16.35;;;10.38;;
30301;SDS011;17111;52.130;5.028;2023-07-08T07:52:34;16.73;;;9.73;;
30301;SDS011;17111;52.130;5.028;2023-07-08T07:55:01;17.13;;;8.80;;
30301;SDS011;17111;52.130;5.028;2023-07-08T07:57:28;10.15;;;6.40;;
30301;SDS011;17111;52.130;5.028;2023-07-08T07:59:54;10.82;;;6.13;;
30301;SDS011;17111;52.130;5.028;2023-07-08T08:02:21;8.35;;;5.80;;
30301;SDS011;17111;52.130;5.028;2023-07-08T08:04:47;11.02;;;5.60;;
30301;SDS011;17111;52.130;5.028;2023-07-08T08:07:14;8.88;;;4.68;;
30301;SDS011;17111;52.130;5.028;2023-07-08T08:09:41;7.75;;;4.68;;
30301;SDS011;17111;52.130;5.028;2023-07-08T08:12:08;9.05;;;4.80;;
30301;SDS011;17111;52.130;5.028;2023-07-08T08:14:37;6.25;;;4.50;;
30301;SDS011;17111;52.130;5.028;2023-07-08T08:17:04;7.00;;;3.88;;
30301;SDS011;17111;52.130;5.028;2023-07-08T08:19:32;6.57;;;3.90;;
30301;SDS011;17111;52.130;5.028;2023-07-08T08:21:58;6.82;;;3.60;;
30301;SDS011;17111;52.130;5.028;2023-07-08T08:24:25;8.48;;;5.15;;
30301;SDS011;17111;52.130;5.028;2023-07-08T08:26:53;6.40;;;4.05;;
30301;SDS011;17111;52.130;5.028;2023-07-08T08:29:20;7.28;;;4.47;;
30301;SDS011;17111;52.130;5.028;2023-07-08T08:31:47;6.40;;;4.00;;
30301;SDS011;17111;52.130;5.028;2023-07-08T08:34:14;6.57;;;4.57;;
30301;SDS011;17111;52.130;5.028;2023-07-08T08:36:40;6.13;;;4.88;;
30301;SDS011;17111;52.130;5.028;2023-07-08T08:39:07;7.70;;;4.05;;
30301;SDS011;17111;52.130;5.028;2023-07-08T08:41:34;6.47;;;3.72;;
30301;SDS011;17111;52.130;5.028;2023-07-08T08:44:04;5.70;;;3.83;;
30301;SDS011;17111;52.130;5.028;2023-07-08T08:46:40;6.05;;;3.67;;
30301;SDS011;17111;52.130;5.028;2023-07-08T08:49:35;7.03;;;3.95;;
30301;SDS011;17111;52.130;5.028;2023-07-08T08:52:04;6.10;;;3.38;;
30301;SDS011;17111;52.130;5.028;2023-07-08T08:54:31;7.10;;;3.35;;
30301;SDS011;17111;52.130;5.028;2023-07-08T09:05:14;6.68;;;4.53;;
30301;SDS011;17111;52.130;5.028;2023-07-08T09:07:46;9.40;;;4.05;;
30301;SDS011;17111;52.130;5.028;2023-07-08T09:13:06;6.70;;;4.00;;
30301;SDS011;17111;52.130;5.028;2023-07-08T09:15:38;7.40;;;3.72;;
30301;SDS011;17111;52.130;5.028;2023-07-08T09:18:12;7.15;;;3.90;;
30301;SDS011;17111;52.130;5.028;2023-07-08T09:20:47;6.72;;;3.85;;
30301;SDS011;17111;52.130;5.028;2023-07-08T09:23:16;5.95;;;3.80;;
30301;SDS011;17111;52.130;5.028;2023-07-08T09:26:07;7.28;;;3.92;;
30301;SDS011;17111;52.130;5.028;2023-07-08T09:28:43;9.10;;;4.80;;
30301;SDS011;17111;52.130;5.028;2023-07-08T09:31:31;5.88;;;3.17;;
30301;SDS011;17111;52.130;5.028;2023-07-08T09:34:06;5.88;;;3.63;;
30301;SDS011;17111;52.130;5.028;2023-07-08T09:36:51;6.43;;;3.63;;
30301;SDS011;17111;52.130;5.028;2023-07-08T09:39:19;7.97;;;3.55;;
30301;SDS011;17111;52.130;5.028;2023-07-08T09:41:47;8.15;;;3.88;;
30301;SDS011;17111;52.130;5.028;2023-07-08T09:44:17;8.10;;;3.88;;
30301;SDS011;17111;52.130;5.028;2023-07-08T09:46:57;15.93;;;4.45;;
30301;SDS011;17111;52.130;5.028;2023-07-08T09:49:32;6.05;;;3.72;;
30301;SDS011;17111;52.130;5.028;2023-07-08T09:52:00;6.20;;;3.58;;
30301;SDS011;17111;52.130;5.028;2023-07-08T09:54:30;6.05;;;3.67;;
30301;SDS011;17111;52.130;5.028;2023-07-08T09:57:06;5.78;;;3.88;;
30301;SDS011;17111;52.130;5.028;2023-07-08T09:59:40;5.63;;;3.75;;
30301;SDS011;17111;52.130;5.028;2023-07-08T10:05:19;5.90;;;3.58;;
30301;SDS011;17111;52.130;5.028;2023-07-08T10:07:54;7.25;;;3.88;;
30301;SDS011;17111;52.130;5.028;2023-07-08T10:10:24;6.07;;;3.83;;
30301;SDS011;17111;52.130;5.028;2023-07-08T10:12:58;8.57;;;3.78;;
30301;SDS011;17111;52.130;5.028;2023-07-08T10:15:30;5.68;;;3.60;;
30301;SDS011;17111;52.130;5.028;2023-07-08T10:18:00;5.72;;;3.78;;
30301;SDS011;17111;52.130;5.028;2023-07-08T10:20:29;5.53;;;3.70;;
30301;SDS011;17111;52.130;5.028;2023-07-08T10:23:46;9.68;;;4.28;;
30301;SDS011;17111;52.130;5.028;2023-07-08T10:26:31;7.28;;;4.30;;
30301;SDS011;17111;52.130;5.028;2023-07-08T10:32:13;7.10;;;4.22;;
30301;SDS011;17111;52.130;5.028;2023-07-08T10:37:26;7.55;;;4.07;;
30301;SDS011;17111;52.130;5.028;2023-07-08T10:42:51;10.88;;;4.88;;
30301;SDS011;17111;52.130;5.028;2023-07-08T10:45:21;5.80;;;4.05;;
30301;SDS011;17111;52.130;5.028;2023-07-08T10:47:59;7.75;;;4.45;;
30301;SDS011;17111;52.130;5.028;2023-07-08T10:50:45;8.80;;;4.70;;
30301;SDS011;17111;52.130;5.028;2023-07-08T10:55:58;11.20;;;5.00;;
30301;SDS011;17111;52.130;5.028;2023-07-08T11:01:44;6.70;;;4.53;;
30301;SDS011;17111;52.130;5.028;2023-07-08T11:07:28;6.47;;;4.30;;
30301;SDS011;17111;52.130;5.028;2023-07-08T11:12:47;7.45;;;4.70;;
30301;SDS011;17111;52.130;5.028;2023-07-08T11:15:29;7.00;;;4.18;;
30301;SDS011;17111;52.130;5.028;2023-07-08T11:26:39;6.97;;;4.97;;
30301;SDS011;17111;52.130;5.028;2023-07-08T11:29:18;7.65;;;4.53;;
30301;SDS011;17111;52.130;5.028;2023-07-08T11:31:48;7.63;;;4.25;;
30301;SDS011;17111;52.130;5.028;2023-07-08T11:34:17;7.82;;;5.00;;
30301;SDS011;17111;52.130;5.028;2023-07-08T11:36:45;6.03;;;3.97;;
30301;SDS011;17111;52.130;5.028;2023-07-08T11:44:58;7.93;;;4.40;;
30301;SDS011;17111;52.130;5.028;2023-07-08T11:47:32;8.18;;;5.28;;
30301;SDS011;17111;52.130;5.028;2023-07-08T11:50:18;11.20;;;4.88;;
30301;SDS011;17111;52.130;5.028;2023-07-08T11:53:32;8.25;;;4.63;;
30301;SDS011;17111;52.130;5.028;2023-07-08T11:56:02;9.55;;;4.93;;
30301;SDS011;17111;52.130;5.028;2023-07-08T11:58:31;6.95;;;4.32;;
30301;SDS011;17111;52.130;5.028;2023-07-08T12:01:21;10.80;;;7.00;;
30301;SDS011;17111;52.130;5.028;2023-07-08T12:03:53;7.38;;;4.55;;
30301;SDS011;17111;52.130;5.028;2023-07-08T12:08:59;6.68;;;4.68;;
30301;SDS011;17111;52.130;5.028;2023-07-08T12:11:43;12.02;;;5.50;;
30301;SDS011;17111;52.130;5.028;2023-07-08T12:14:11;7.60;;;4.85;;
30301;SDS011;17111;52.130;5.028;2023-07-08T12:16:38;8.90;;;4.60;;
30301;SDS011;17111;52.130;5.028;2023-07-08T12:19:05;7.57;;;4.55;;
30301;SDS011;17111;52.130;5.028;2023-07-08T12:21:36;8.68;;;4.57;;
30301;SDS011;17111;52.130;5.028;2023-07-08T12:24:03;6.75;;;4.60;;
30301;SDS011;17111;52.130;5.028;2023-07-08T12:26:31;9.30;;;4.38;;
30301;SDS011;17111;52.130;5.028;2023-07-08T12:28:59;8.13;;;4.20;;
30301;SDS011;17111;52.130;5.028;2023-07-08T12:31:26;6.40;;;4.10;;
30301;SDS011;17111;52.130;5.028;2023-07-08T12:33:53;7.43;;;4.75;;
30301;SDS011;17111;52.130;5.028;2023-07-08T12:36:22;7.53;;;4.28;;
30301;SDS011;17111;52.130;5.028;2023-07-08T12:38:54;8.52;;;4.20;;
30301;SDS011;17111;52.130;5.028;2023-07-08T12:41:24;6.43;;;3.83;;
30301;SDS011;17111;52.130;5.028;2023-07-08T12:43:53;7.88;;;4.15;;
30301;SDS011;17111;52.130;5.028;2023-07-08T12:46:22;11.48;;;4.43;;
30301;SDS011;17111;52.130;5.028;2023-07-08T12:48:50;6.03;;;3.65;;
30301;SDS011;17111;52.130;5.028;2023-07-08T12:51:17;6.68;;;3.92;;
30301;SDS011;17111;52.130;5.028;2023-07-08T12:53:49;4.93;;;3.70;;
30301;SDS011;17111;52.130;5.028;2023-07-08T12:56:17;7.97;;;4.03;;
30301;SDS011;17111;52.130;5.028;2023-07-08T12:58:49;7.38;;;4.63;;
30301;SDS011;17111;52.130;5.028;2023-07-08T13:01:22;8.40;;;4.30;;
30301;SDS011;17111;52.130;5.028;2023-07-08T13:03:54;7.07;;;4.28;;
30301;SDS011;17111;52.130;5.028;2023-07-08T13:06:25;7.28;;;4.65;;
30301;SDS011;17111;52.130;5.028;2023-07-08T13:09:06;7.00;;;3.63;;
30301;SDS011;17111;52.130;5.028;2023-07-08T13:11:41;7.65;;;3.97;;
30301;SDS011;17111;52.130;5.028;2023-07-08T13:14:08;9.95;;;5.55;;
30301;SDS011;17111;52.130;5.028;2023-07-08T13:16:36;6.75;;;4.57;;
30301;SDS011;17111;52.130;5.028;2023-07-08T13:19:03;8.27;;;4.78;;
30301;SDS011;17111;52.130;5.028;2023-07-08T13:21:30;7.00;;;4.72;;
30301;SDS011;17111;52.130;5.028;2023-07-08T13:23:58;7.50;;;4.63;;
30301;SDS011;17111;52.130;5.028;2023-07-08T13:26:26;9.82;;;4.70;;
30301;SDS011;17111;52.130;5.028;2023-07-08T13:29:02;8.30;;;4.85;;
30301;SDS011;17111;52.130;5.028;2023-07-08T13:31:33;6.82;;;4.43;;
30301;SDS011;17111;52.130;5.028;2023-07-08T13:34:08;9.63;;;5.43;;
30301;SDS011;17111;52.130;5.028;2023-07-08T13:36:43;7.88;;;4.80;;
30301;SDS011;17111;52.130;5.028;2023-07-08T13:39:16;7.47;;;5.20;;
30301;SDS011;17111;52.130;5.028;2023-07-08T13:41:47;6.70;;;4.30;;
30301;SDS011;17111;52.130;5.028;2023-07-08T13:44:14;7.32;;;4.93;;
30301;SDS011;17111;52.130;5.028;2023-07-08T13:49:24;7.45;;;4.60;;
30301;SDS011;17111;52.130;5.028;2023-07-08T13:52:07;9.18;;;4.75;;
30301;SDS011;17111;52.130;5.028;2023-07-08T13:54:46;9.75;;;5.00;;
30301;SDS011;17111;52.130;5.028;2023-07-08T13:57:16;8.88;;;4.82;;
30301;SDS011;17111;52.130;5.028;2023-07-08T13:59:44;7.93;;;4.63;;
30301;SDS011;17111;52.130;5.028;2023-07-08T14:04:46;6.20;;;4.05;;
30301;SDS011;17111;52.130;5.028;2023-07-08T14:07:21;9.30;;;5.72;;
30301;SDS011;17111;52.130;5.028;2023-07-08T14:09:50;12.82;;;4.65;;
30301;SDS011;17111;52.130;5.028;2023-07-08T14:12:18;8.82;;;4.72;;
30301;SDS011;17111;52.130;5.028;2023-07-08T14:14:49;7.13;;;5.50;;
30301;SDS011;17111;52.130;5.028;2023-07-08T14:17:25;8.40;;;4.57;;
30301;SDS011;17111;52.130;5.028;2023-07-08T14:19:52;10.18;;;5.18;;
30301;SDS011;17111;52.130;5.028;2023-07-08T14:22:24;8.05;;;4.45;;
30301;SDS011;17111;52.130;5.028;2023-07-08T14:24:52;20.23;;;6.53;;
30301;SDS011;17111;52.130;5.028;2023-07-08T14:27:19;21.00;;;7.30;;
30301;SDS011;17111;52.130;5.028;2023-07-08T14:29:47;24.75;;;7.97;;
30301;SDS011;17111;52.130;5.028;2023-07-08T14:34:54;19.35;;;7.25;;
30301;SDS011;17111;52.130;5.028;2023-07-08T14:37:47;13.90;;;6.18;;
30301;SDS011;17111;52.130;5.028;2023-07-08T14:40:19;16.60;;;6.93;;
30301;SDS011;17111;52.130;5.028;2023-07-08T14:42:56;11.38;;;5.82;;
30301;SDS011;17111;52.130;5.028;2023-07-08T14:45:28;10.00;;;5.97;;
30301;SDS011;17111;52.130;5.028;2023-07-08T14:48:09;12.02;;;6.32;;
30301;SDS011;17111;52.130;5.028;2023-07-08T14:50:37;10.15;;;5.72;;
30301;SDS011;17111;52.130;5.028;2023-07-08T14:53:04;10.57;;;5.15;;
30301;SDS011;17111;52.130;5.028;2023-07-08T14:55:31;14.20;;;5.88;;
30301;SDS011;17111;52.130;5.028;2023-07-08T14:57:58;9.30;;;5.53;;
30301;SDS011;17111;52.130;5.028;2023-07-08T15:00:26;11.25;;;5.57;;
30301;SDS011;17111;52.130;5.028;2023-07-08T15:02:52;11.13;;;5.28;;
30301;SDS011;17111;52.130;5.028;2023-07-08T15:05:21;9.13;;;5.30;;
30301;SDS011;17111;52.130;5.028;2023-07-08T15:07:54;9.48;;;5.22;;
30301;SDS011;17111;52.130;5.028;2023-07-08T15:10:27;10.10;;;5.88;;
30301;SDS011;17111;52.130;5.028;2023-07-08T15:12:56;10.95;;;5.93;;
30301;SDS011;17111;52.130;5.028;2023-07-08T15:15:33;8.45;;;5.35;;
30301;SDS011;17111;52.130;5.028;2023-07-08T15:18:06;7.45;;;4.97;;
30301;SDS011;17111;52.130;5.028;2023-07-08T15:20:38;10.25;;;6.15;;
30301;SDS011;17111;52.130;5.028;2023-07-08T15:23:05;8.35;;;5.25;;
30301;SDS011;17111;52.130;5.028;2023-07-08T15:25:32;8.13;;;5.30;;
30301;SDS011;17111;52.130;5.028;2023-07-08T15:28:01;10.88;;;5.10;;
30301;SDS011;17111;52.130;5.028;2023-07-08T15:30:30;7.00;;;4.70;;
30301;SDS011;17111;52.130;5.028;2023-07-08T15:32:57;8.15;;;5.63;;
30301;SDS011;17111;52.130;5.028;2023-07-08T15:35:26;8.73;;;5.18;;
30301;SDS011;17111;52.130;5.028;2023-07-08T15:37:59;6.55;;;4.50;;
30301;SDS011;17111;52.130;5.028;2023-07-08T15:40:28;8.23;;;4.57;;
30301;SDS011;17111;52.130;5.028;2023-07-08T15:42:58;10.52;;;5.28;;
30301;SDS011;17111;52.130;5.028;2023-07-08T15:45:28;10.50;;;4.90;;
30301;SDS011;17111;52.130;5.028;2023-07-08T15:47:58;8.98;;;5.43;;
30301;SDS011;17111;52.130;5.028;2023-07-08T15:50:26;8.63;;;5.20;;
30301;SDS011;17111;52.130;5.028;2023-07-08T15:52:53;10.20;;;5.05;;
30301;SDS011;17111;52.130;5.028;2023-07-08T15:55:25;7.57;;;4.70;;
30301;SDS011;17111;52.130;5.028;2023-07-08T15:57:54;8.85;;;4.95;;
30301;SDS011;17111;52.130;5.028;2023-07-08T16:00:32;7.90;;;5.03;;
30301;SDS011;17111;52.130;5.028;2023-07-08T16:03:01;7.32;;;4.60;;